sensor_id;sensor_type;location;lat;lon;timestamp;temperature;humidity
66140;DHT22;52945;51.908;8.364;2023-03-29T00:01:08;8.60;62.10
66140;DHT22;52945;51.908;8.364;2023-03-29T00:04:09;8.60;62.90
66140;DHT22;52945;51.908;8.364;2023-03-29T00:07:13;8.60;63.20
66140;DHT22;52945;51.908;8.364;2023-03-29T00:10:13;8.60;63.30
66140;DHT22;52945;51.908;8.364;2023-03-29T00:13:14;8.60;63.50
66140;DHT22;52945;51.908;8.364;2023-03-29T00:16:15;8.60;63.90
66140;DHT22;52945;51.908;8.364;2023-03-29T00:19:16;8.60;64.40
66140;DHT22;52945;51.908;8.364;2023-03-29T00:22:17;8.60;65.00
66140;DHT22;52945;51.908;8.364;2023-03-29T00:25:17;8.50;65.70
66140;DHT22;52945;51.908;8.364;2023-03-29T00:28:18;8.50;66.10
66140;DHT22;52945;51.908;8.364;2023-03-29T00:31:19;8.40;66.50
66140;DHT22;52945;51.908;8.364;2023-03-29T00:34:20;8.40;66.70
66140;DHT22;52945;51.908;8.364;2023-03-29T00:37:22;8.50;66.70
66140;DHT22;52945;51.908;8.364;2023-03-29T00:40:26;8.30;67.00
66140;DHT22;52945;51.908;8.364;2023-03-29T00:43:26;8.30;67.10
66140;DHT22;52945;51.908;8.364;2023-03-29T00:46:30;8.20;67.30
66140;DHT22;52945;51.908;8.364;2023-03-29T00:49:31;8.20;67.30
66140;DHT22;52945;51.908;8.364;2023-03-29T00:52:32;8.10;67.40
66140;DHT22;52945;51.908;8.364;2023-03-29T00:55:42;8.10;67.50
66140;DHT22;52945;51.908;8.364;2023-03-29T01:02:11;8.10;67.60
66140;DHT22;52945;51.908;8.364;2023-03-29T01:05:17;8.00;67.70
66140;DHT22;52945;51.908;8.364;2023-03-29T01:08:33;8.10;67.90
66140;DHT22;52945;51.908;8.364;2023-03-29T01:11:44;8.00;67.70
66140;DHT22;52945;51.908;8.364;2023-03-29T01:15:19;8.00;67.90
66140;DHT22;52945;51.908;8.364;2023-03-29T01:18:19;7.90;67.90
66140;DHT22;52945;51.908;8.364;2023-03-29T01:21:26;8.00;68.00
66140;DHT22;52945;51.908;8.364;2023-03-29T01:24:52;7.90;68.10
66140;DHT22;52945;51.908;8.364;2023-03-29T01:27:59;8.00;68.00
66140;DHT22;52945;51.908;8.364;2023-03-29T01:31:06;8.00;67.90
66140;DHT22;52945;51.908;8.364;2023-03-29T01:34:20;8.00;68.10
66140;DHT22;52945;51.908;8.364;2023-03-29T01:37:29;7.90;68.00
66140;DHT22;52945;51.908;8.364;2023-03-29T01:40:32;7.90;68.20
66140;DHT22;52945;51.908;8.364;2023-03-29T01:47:01;7.90;68.50
66140;DHT22;52945;51.908;8.364;2023-03-29T01:50:12;7.90;68.50
66140;DHT22;52945;51.908;8.364;2023-03-29T01:53:44;7.90;68.50
66140;DHT22;52945;51.908;8.364;2023-03-29T01:56:46;8.00;68.50
66140;DHT22;52945;51.908;8.364;2023-03-29T01:59:48;8.00;68.10
66140;DHT22;52945;51.908;8.364;2023-03-29T02:02:55;7.90;68.20
66140;DHT22;52945;51.908;8.364;2023-03-29T02:05:59;7.90;68.40
66140;DHT22;52945;51.908;8.364;2023-03-29T02:09:00;7.80;68.60
66140;DHT22;52945;51.908;8.364;2023-03-29T02:12:02;7.80;68.50
66140;DHT22;52945;51.908;8.364;2023-03-29T02:15:09;7.80;68.40
66140;DHT22;52945;51.908;8.364;2023-03-29T02:18:10;7.90;68.40
66140;DHT22;52945;51.908;8.364;2023-03-29T02:21:17;7.70;68.50
66140;DHT22;52945;51.908;8.364;2023-03-29T02:24:21;7.70;68.60
66140;DHT22;52945;51.908;8.364;2023-03-29T02:27:22;7.70;68.40
66140;DHT22;52945;51.908;8.364;2023-03-29T02:30:34;7.70;68.60
66140;DHT22;52945;51.908;8.364;2023-03-29T02:34:01;7.70;68.70
66140;DHT22;52945;51.908;8.364;2023-03-29T02:37:06;7.70;68.70
66140;DHT22;52945;51.908;8.364;2023-03-29T02:40:11;7.70;68.60
66140;DHT22;52945;51.908;8.364;2023-03-29T02:43:13;7.70;68.70
66140;DHT22;52945;51.908;8.364;2023-03-29T02:46:15;7.70;68.70
66140;DHT22;52945;51.908;8.364;2023-03-29T02:49:18;7.70;68.60
66140;DHT22;52945;51.908;8.364;2023-03-29T02:52:24;7.70;68.50
66140;DHT22;52945;51.908;8.364;2023-03-29T02:55:28;7.70;68.60
66140;DHT22;52945;51.908;8.364;2023-03-29T02:58:33;7.70;68.50
66140;DHT22;52945;51.908;8.364;2023-03-29T03:01:35;7.60;68.70
66140;DHT22;52945;51.908;8.364;2023-03-29T03:04:36;7.70;68.70
66140;DHT22;52945;51.908;8.364;2023-03-29T03:07:37;7.70;68.70
66140;DHT22;52945;51.908;8.364;2023-03-29T03:10:39;7.70;68.60
66140;DHT22;52945;51.908;8.364;2023-03-29T03:13:40;7.70;68.60
66140;DHT22;52945;51.908;8.364;2023-03-29T03:16:41;7.80;68.50
66140;DHT22;52945;51.908;8.364;2023-03-29T03:19:42;7.70;68.60
66140;DHT22;52945;51.908;8.364;2023-03-29T03:22:44;7.70;68.70
66140;DHT22;52945;51.908;8.364;2023-03-29T03:25:48;7.80;68.50
66140;DHT22;52945;51.908;8.364;2023-03-29T03:28:48;7.70;68.60
66140;DHT22;52945;51.908;8.364;2023-03-29T03:31:49;7.70;68.80
66140;DHT22;52945;51.908;8.364;2023-03-29T03:34:51;7.60;68.70
66140;DHT22;52945;51.908;8.364;2023-03-29T03:37:52;7.70;68.70
66140;DHT22;52945;51.908;8.364;2023-03-29T03:40:56;7.70;68.80
66140;DHT22;52945;51.908;8.364;2023-03-29T03:43:57;7.60;68.60
66140;DHT22;52945;51.908;8.364;2023-03-29T03:46:57;7.60;68.80
66140;DHT22;52945;51.908;8.364;2023-03-29T03:49:58;7.70;68.90
66140;DHT22;52945;51.908;8.364;2023-03-29T03:52:58;7.60;68.90
66140;DHT22;52945;51.908;8.364;2023-03-29T03:55:59;7.70;68.90
66140;DHT22;52945;51.908;8.364;2023-03-29T03:59:01;7.70;68.80
66140;DHT22;52945;51.908;8.364;2023-03-29T04:02:02;7.70;68.80
66140;DHT22;52945;51.908;8.364;2023-03-29T04:05:03;7.70;68.70
66140;DHT22;52945;51.908;8.364;2023-03-29T04:08:03;7.70;68.80
66140;DHT22;52945;51.908;8.364;2023-03-29T04:11:06;7.70;68.70
66140;DHT22;52945;51.908;8.364;2023-03-29T04:14:06;7.70;68.80
66140;DHT22;52945;51.908;8.364;2023-03-29T04:17:07;7.70;68.80
66140;DHT22;52945;51.908;8.364;2023-03-29T04:20:08;7.80;68.50
66140;DHT22;52945;51.908;8.364;2023-03-29T04:23:12;7.80;68.50
66140;DHT22;52945;51.908;8.364;2023-03-29T04:26:14;7.80;68.50
66140;DHT22;52945;51.908;8.364;2023-03-29T04:29:15;7.80;68.40
66140;DHT22;52945;51.908;8.364;2023-03-29T04:32:16;7.90;68.20
66140;DHT22;52945;51.908;8.364;2023-03-29T04:35:16;7.80;68.10
66140;DHT22;52945;51.908;8.364;2023-03-29T04:38:17;7.80;68.50
66140;DHT22;52945;51.908;8.364;2023-03-29T04:41:22;7.80;68.50
66140;DHT22;52945;51.908;8.364;2023-03-29T04:44:23;7.90;68.30
66140;DHT22;52945;51.908;8.364;2023-03-29T04:47:23;7.90;68.10
66140;DHT22;52945;51.908;8.364;2023-03-29T04:50:24;7.90;68.00
66140;DHT22;52945;51.908;8.364;2023-03-29T04:53:24;8.00;68.00
66140;DHT22;52945;51.908;8.364;2023-03-29T04:56:25;8.00;68.00
66140;DHT22;52945;51.908;8.364;2023-03-29T04:59:26;8.00;68.00
66140;DHT22;52945;51.908;8.364;2023-03-29T05:02:26;8.00;68.00
66140;DHT22;52945;51.908;8.364;2023-03-29T05:05:30;8.00;68.00
66140;DHT22;52945;51.908;8.364;2023-03-29T05:08:34;8.00;67.90
66140;DHT22;52945;51.908;8.364;2023-03-29T05:11:38;8.00;67.90
66140;DHT22;52945;51.908;8.364;2023-03-29T05:14:39;8.00;67.90
66140;DHT22;52945;51.908;8.364;2023-03-29T05:17:39;8.10;67.90
66140;DHT22;52945;51.908;8.364;2023-03-29T05:20:40;8.00;67.90
66140;DHT22;52945;51.908;8.364;2023-03-29T05:23:41;8.10;67.90
66140;DHT22;52945;51.908;8.364;2023-03-29T05:26:42;8.10;67.80
66140;DHT22;52945;51.908;8.364;2023-03-29T05:29:43;8.20;67.80
66140;DHT22;52945;51.908;8.364;2023-03-29T05:32:44;8.10;67.90
66140;DHT22;52945;51.908;8.364;2023-03-29T05:35:44;8.10;67.90
66140;DHT22;52945;51.908;8.364;2023-03-29T05:38:45;8.20;67.70
66140;DHT22;52945;51.908;8.364;2023-03-29T05:41:46;8.20;67.70
66140;DHT22;52945;51.908;8.364;2023-03-29T05:44:46;8.20;67.70
66140;DHT22;52945;51.908;8.364;2023-03-29T05:47:47;8.20;67.70
66140;DHT22;52945;51.908;8.364;2023-03-29T05:50:49;8.20;67.70
66140;DHT22;52945;51.908;8.364;2023-03-29T05:53:50;8.20;67.80
66140;DHT22;52945;51.908;8.364;2023-03-29T05:56:51;8.30;67.70
66140;DHT22;52945;51.908;8.364;2023-03-29T05:59:51;8.20;67.70
66140;DHT22;52945;51.908;8.364;2023-03-29T06:02:52;8.20;67.60
66140;DHT22;52945;51.908;8.364;2023-03-29T06:06:00;8.20;67.70
66140;DHT22;52945;51.908;8.364;2023-03-29T06:09:04;8.30;67.70
66140;DHT22;52945;51.908;8.364;2023-03-29T06:12:05;8.30;67.70
66140;DHT22;52945;51.908;8.364;2023-03-29T06:15:06;8.40;67.70
66140;DHT22;52945;51.908;8.364;2023-03-29T06:18:07;8.40;67.60
66140;DHT22;52945;51.908;8.364;2023-03-29T06:21:09;8.40;67.50
66140;DHT22;52945;51.908;8.364;2023-03-29T06:24:10;8.40;67.50
66140;DHT22;52945;51.908;8.364;2023-03-29T06:27:10;8.50;67.30
66140;DHT22;52945;51.908;8.364;2023-03-29T06:30:12;8.40;66.90
66140;DHT22;52945;51.908;8.364;2023-03-29T06:33:14;8.50;67.00
66140;DHT22;52945;51.908;8.364;2023-03-29T06:36:16;8.50;66.90
66140;DHT22;52945;51.908;8.364;2023-03-29T06:39:16;8.60;66.70
66140;DHT22;52945;51.908;8.364;2023-03-29T06:42:20;8.60;66.70
66140;DHT22;52945;51.908;8.364;2023-03-29T06:45:29;8.60;66.80
66140;DHT22;52945;51.908;8.364;2023-03-29T06:48:30;8.60;66.80
66140;DHT22;52945;51.908;8.364;2023-03-29T06:51:31;8.70;66.90
66140;DHT22;52945;51.908;8.364;2023-03-29T06:54:31;8.70;66.80
66140;DHT22;52945;51.908;8.364;2023-03-29T06:57:33;8.70;66.80
66140;DHT22;52945;51.908;8.364;2023-03-29T07:00:34;8.80;66.80
66140;DHT22;52945;51.908;8.364;2023-03-29T07:03:37;8.80;66.90
66140;DHT22;52945;51.908;8.364;2023-03-29T07:06:38;8.80;66.70
66140;DHT22;52945;51.908;8.364;2023-03-29T07:09:39;8.90;66.60
66140;DHT22;52945;51.908;8.364;2023-03-29T07:12:40;8.90;66.60
66140;DHT22;52945;51.908;8.364;2023-03-29T07:15:43;9.00;66.60
66140;DHT22;52945;51.908;8.364;2023-03-29T07:18:44;9.10;66.70
66140;DHT22;52945;51.908;8.364;2023-03-29T07:21:45;9.10;66.70
66140;DHT22;52945;51.908;8.364;2023-03-29T07:24:45;9.10;66.80
66140;DHT22;52945;51.908;8.364;2023-03-29T07:27:47;9.20;66.70
66140;DHT22;52945;51.908;8.364;2023-03-29T07:30:47;9.20;67.10
66140;DHT22;52945;51.908;8.364;2023-03-29T07:33:49;9.30;67.10
66140;DHT22;52945;51.908;8.364;2023-03-29T07:36:52;9.30;66.90
66140;DHT22;52945;51.908;8.364;2023-03-29T07:39:53;9.30;67.10
66140;DHT22;52945;51.908;8.364;2023-03-29T07:42:55;9.30;67.40
66140;DHT22;52945;51.908;8.364;2023-03-29T07:46:03;9.40;67.30
66140;DHT22;52945;51.908;8.364;2023-03-29T07:49:04;9.40;67.60
66140;DHT22;52945;51.908;8.364;2023-03-29T07:52:07;9.50;67.70
66140;DHT22;52945;51.908;8.364;2023-03-29T07:55:10;9.50;67.60
66140;DHT22;52945;51.908;8.364;2023-03-29T07:58:11;9.60;67.90
66140;DHT22;52945;51.908;8.364;2023-03-29T08:01:12;9.60;67.80
66140;DHT22;52945;51.908;8.364;2023-03-29T08:04:15;9.60;67.70
66140;DHT22;52945;51.908;8.364;2023-03-29T08:07:17;9.70;67.90
66140;DHT22;52945;51.908;8.364;2023-03-29T08:10:21;9.60;67.90
66140;DHT22;52945;51.908;8.364;2023-03-29T08:13:21;9.70;68.00
66140;DHT22;52945;51.908;8.364;2023-03-29T08:16:22;9.70;67.90
66140;DHT22;52945;51.908;8.364;2023-03-29T08:19:23;9.80;68.00
66140;DHT22;52945;51.908;8.364;2023-03-29T08:22:23;9.80;67.90
66140;DHT22;52945;51.908;8.364;2023-03-29T08:25:24;9.80;67.90
66140;DHT22;52945;51.908;8.364;2023-03-29T08:28:25;9.90;67.70
66140;DHT22;52945;51.908;8.364;2023-03-29T08:31:26;10.00;67.90
66140;DHT22;52945;51.908;8.364;2023-03-29T08:34:26;10.00;67.70
66140;DHT22;52945;51.908;8.364;2023-03-29T08:37:28;10.10;67.80
66140;DHT22;52945;51.908;8.364;2023-03-29T08:40:28;10.10;67.70
66140;DHT22;52945;51.908;8.364;2023-03-29T08:47:17;10.20;67.50
66140;DHT22;52945;51.908;8.364;2023-03-29T08:50:21;10.20;67.60
66140;DHT22;52945;51.908;8.364;2023-03-29T08:53:29;10.30;67.50
66140;DHT22;52945;51.908;8.364;2023-03-29T08:56:34;10.30;67.70
66140;DHT22;52945;51.908;8.364;2023-03-29T08:59:36;10.40;67.90
66140;DHT22;52945;51.908;8.364;2023-03-29T09:02:37;10.40;67.80
66140;DHT22;52945;51.908;8.364;2023-03-29T09:05:45;10.50;67.80
66140;DHT22;52945;51.908;8.364;2023-03-29T09:08:48;10.50;67.70
66140;DHT22;52945;51.908;8.364;2023-03-29T09:15:29;10.70;67.40
66140;DHT22;52945;51.908;8.364;2023-03-29T09:18:36;10.60;67.30
66140;DHT22;52945;51.908;8.364;2023-03-29T09:21:44;10.70;67.30
66140;DHT22;52945;51.908;8.364;2023-03-29T09:25:10;10.80;67.30
66140;DHT22;52945;51.908;8.364;2023-03-29T09:28:18;10.90;67.10
66140;DHT22;52945;51.908;8.364;2023-03-29T09:31:25;11.00;66.80
66140;DHT22;52945;51.908;8.364;2023-03-29T09:34:40;11.10;66.50
66140;DHT22;52945;51.908;8.364;2023-03-29T09:37:42;11.10;66.20
66140;DHT22;52945;51.908;8.364;2023-03-29T09:40:50;11.10;66.10
66140;DHT22;52945;51.908;8.364;2023-03-29T09:43:54;11.20;66.30
66140;DHT22;52945;51.908;8.364;2023-03-29T09:47:01;11.40;66.10
66140;DHT22;52945;51.908;8.364;2023-03-29T09:50:11;11.40;65.90
66140;DHT22;52945;51.908;8.364;2023-03-29T09:53:17;11.50;66.30
66140;DHT22;52945;51.908;8.364;2023-03-29T09:56:18;11.70;66.10
66140;DHT22;52945;51.908;8.364;2023-03-29T09:59:19;11.70;65.70
66140;DHT22;52945;51.908;8.364;2023-03-29T10:02:20;11.80;65.50
66140;DHT22;52945;51.908;8.364;2023-03-29T10:05:23;11.80;65.30
66140;DHT22;52945;51.908;8.364;2023-03-29T10:11:34;11.90;65.10
66140;DHT22;52945;51.908;8.364;2023-03-29T10:14:40;12.00;64.60
66140;DHT22;52945;51.908;8.364;2023-03-29T10:17:41;12.10;64.20
66140;DHT22;52945;51.908;8.364;2023-03-29T10:20:45;12.10;64.40
66140;DHT22;52945;51.908;8.364;2023-03-29T10:23:47;12.20;64.20
66140;DHT22;52945;51.908;8.364;2023-03-29T10:26:58;12.20;64.00
66140;DHT22;52945;51.908;8.364;2023-03-29T10:30:08;12.30;64.20
66140;DHT22;52945;51.908;8.364;2023-03-29T10:33:17;12.30;63.70
66140;DHT22;52945;51.908;8.364;2023-03-29T10:36:18;12.40;63.80
66140;DHT22;52945;51.908;8.364;2023-03-29T10:39:21;12.50;63.80
66140;DHT22;52945;51.908;8.364;2023-03-29T10:42:23;12.50;63.90
66140;DHT22;52945;51.908;8.364;2023-03-29T10:45:32;12.50;63.60
66140;DHT22;52945;51.908;8.364;2023-03-29T10:48:34;12.60;63.70
66140;DHT22;52945;51.908;8.364;2023-03-29T10:51:35;12.70;63.80
66140;DHT22;52945;51.908;8.364;2023-03-29T10:54:36;12.60;63.80
66140;DHT22;52945;51.908;8.364;2023-03-29T10:58:04;12.70;63.60
66140;DHT22;52945;51.908;8.364;2023-03-29T11:01:13;12.70;63.60
66140;DHT22;52945;51.908;8.364;2023-03-29T11:08:11;12.70;63.60
66140;DHT22;52945;51.908;8.364;2023-03-29T11:28:37;12.70;66.00
66140;DHT22;52945;51.908;8.364;2023-03-29T11:31:42;12.80;65.90
66140;DHT22;52945;51.908;8.364;2023-03-29T11:35:11;12.70;66.50
66140;DHT22;52945;51.908;8.364;2023-03-29T11:41:42;12.70;67.80
66140;DHT22;52945;51.908;8.364;2023-03-29T11:44:46;12.70;68.60
66140;DHT22;52945;51.908;8.364;2023-03-29T11:47:51;12.70;69.30
66140;DHT22;52945;51.908;8.364;2023-03-29T11:50:58;12.70;69.70
66140;DHT22;52945;51.908;8.364;2023-03-29T11:54:08;12.70;70.00
66140;DHT22;52945;51.908;8.364;2023-03-29T11:57:20;12.70;70.40
66140;DHT22;52945;51.908;8.364;2023-03-29T12:03:54;12.70;71.10
66140;DHT22;52945;51.908;8.364;2023-03-29T12:10:25;12.60;71.50
66140;DHT22;52945;51.908;8.364;2023-03-29T12:13:35;12.60;71.60
66140;DHT22;52945;51.908;8.364;2023-03-29T12:16:43;12.60;71.80
66140;DHT22;52945;51.908;8.364;2023-03-29T12:20:14;12.60;71.50
66140;DHT22;52945;51.908;8.364;2023-03-29T12:23:17;12.60;71.60
66140;DHT22;52945;51.908;8.364;2023-03-29T12:33:00;12.70;71.50
66140;DHT22;52945;51.908;8.364;2023-03-29T12:39:13;12.80;70.80
66140;DHT22;52945;51.908;8.364;2023-03-29T12:42:17;12.90;70.70
66140;DHT22;52945;51.908;8.364;2023-03-29T12:45:26;12.90;70.50
66140;DHT22;52945;51.908;8.364;2023-03-29T12:48:29;13.00;70.30
66140;DHT22;52945;51.908;8.364;2023-03-29T12:51:32;13.10;70.40
66140;DHT22;52945;51.908;8.364;2023-03-29T12:54:33;13.20;70.00
66140;DHT22;52945;51.908;8.364;2023-03-29T13:09:51;13.70;67.90
66140;DHT22;52945;51.908;8.364;2023-03-29T13:12:52;13.70;67.30
66140;DHT22;52945;51.908;8.364;2023-03-29T13:15:54;13.70;67.30
66140;DHT22;52945;51.908;8.364;2023-03-29T13:22:19;14.00;67.60
66140;DHT22;52945;51.908;8.364;2023-03-29T13:25:50;14.10;66.90
66140;DHT22;52945;51.908;8.364;2023-03-29T13:35:55;14.40;65.60
66140;DHT22;52945;51.908;8.364;2023-03-29T13:39:03;14.50;65.40
66140;DHT22;52945;51.908;8.364;2023-03-29T13:42:22;14.60;65.30
66140;DHT22;52945;51.908;8.364;2023-03-29T13:45:31;14.70;65.00
66140;DHT22;52945;51.908;8.364;2023-03-29T13:51:39;14.70;65.20
66140;DHT22;52945;51.908;8.364;2023-03-29T13:54:54;14.70;65.20
66140;DHT22;52945;51.908;8.364;2023-03-29T13:58:01;14.70;65.20
66140;DHT22;52945;51.908;8.364;2023-03-29T14:04:15;14.70;66.60
66140;DHT22;52945;51.908;8.364;2023-03-29T14:07:19;14.60;67.10
66140;DHT22;52945;51.908;8.364;2023-03-29T14:10:25;14.60;67.20
66140;DHT22;52945;51.908;8.364;2023-03-29T14:13:28;14.60;67.70
66140;DHT22;52945;51.908;8.364;2023-03-29T14:16:31;14.60;67.50
66140;DHT22;52945;51.908;8.364;2023-03-29T14:19:36;14.60;67.20
66140;DHT22;52945;51.908;8.364;2023-03-29T14:22:37;14.60;67.10
66140;DHT22;52945;51.908;8.364;2023-03-29T14:25:38;14.70;67.10
66140;DHT22;52945;51.908;8.364;2023-03-29T14:28:54;14.70;66.70
66140;DHT22;52945;51.908;8.364;2023-03-29T14:32:11;14.70;66.20
66140;DHT22;52945;51.908;8.364;2023-03-29T14:35:12;14.70;66.30
66140;DHT22;52945;51.908;8.364;2023-03-29T14:38:13;14.70;66.50
66140;DHT22;52945;51.908;8.364;2023-03-29T14:41:15;14.70;67.20
66140;DHT22;52945;51.908;8.364;2023-03-29T14:44:18;14.70;67.30
66140;DHT22;52945;51.908;8.364;2023-03-29T14:47:28;14.80;67.40
66140;DHT22;52945;51.908;8.364;2023-03-29T14:50:30;14.80;67.10
66140;DHT22;52945;51.908;8.364;2023-03-29T14:53:31;14.80;67.50
66140;DHT22;52945;51.908;8.364;2023-03-29T14:56:33;14.80;67.40
66140;DHT22;52945;51.908;8.364;2023-03-29T14:59:41;14.90;67.40
66140;DHT22;52945;51.908;8.364;2023-03-29T15:02:52;14.90;67.10
66140;DHT22;52945;51.908;8.364;2023-03-29T15:05:59;15.00;67.00
66140;DHT22;52945;51.908;8.364;2023-03-29T15:09:01;15.00;66.70
66140;DHT22;52945;51.908;8.364;2023-03-29T15:12:04;15.00;66.20
66140;DHT22;52945;51.908;8.364;2023-03-29T15:15:08;15.00;66.00
66140;DHT22;52945;51.908;8.364;2023-03-29T15:18:14;15.00;66.40
66140;DHT22;52945;51.908;8.364;2023-03-29T15:21:19;15.10;66.50
66140;DHT22;52945;51.908;8.364;2023-03-29T15:24:27;15.00;66.40
66140;DHT22;52945;51.908;8.364;2023-03-29T15:27:39;15.10;66.30
66140;DHT22;52945;51.908;8.364;2023-03-29T15:30:43;15.00;66.30
66140;DHT22;52945;51.908;8.364;2023-03-29T15:33:44;15.10;66.30
66140;DHT22;52945;51.908;8.364;2023-03-29T15:36:44;15.10;66.30
66140;DHT22;52945;51.908;8.364;2023-03-29T15:39:45;15.10;65.80
66140;DHT22;52945;51.908;8.364;2023-03-29T15:42:46;15.10;64.10
66140;DHT22;52945;51.908;8.364;2023-03-29T15:45:47;15.20;63.50
66140;DHT22;52945;51.908;8.364;2023-03-29T15:48:47;15.20;63.00
66140;DHT22;52945;51.908;8.364;2023-03-29T15:51:48;15.20;62.80
66140;DHT22;52945;51.908;8.364;2023-03-29T15:54:48;15.20;62.50
66140;DHT22;52945;51.908;8.364;2023-03-29T15:57:52;15.20;62.40
66140;DHT22;52945;51.908;8.364;2023-03-29T16:00:56;15.30;62.10
66140;DHT22;52945;51.908;8.364;2023-03-29T16:04:03;15.30;62.10
66140;DHT22;52945;51.908;8.364;2023-03-29T16:07:06;15.40;61.70
66140;DHT22;52945;51.908;8.364;2023-03-29T16:10:10;15.40;61.60
66140;DHT22;52945;51.908;8.364;2023-03-29T16:13:11;15.50;61.60
66140;DHT22;52945;51.908;8.364;2023-03-29T16:16:13;15.50;61.70
66140;DHT22;52945;51.908;8.364;2023-03-29T16:19:14;15.50;61.60
66140;DHT22;52945;51.908;8.364;2023-03-29T16:22:15;15.50;61.30
66140;DHT22;52945;51.908;8.364;2023-03-29T16:25:18;15.50;61.20
66140;DHT22;52945;51.908;8.364;2023-03-29T16:28:22;15.50;61.50
66140;DHT22;52945;51.908;8.364;2023-03-29T16:31:22;15.60;62.00
66140;DHT22;52945;51.908;8.364;2023-03-29T16:34:26;15.50;61.70
66140;DHT22;52945;51.908;8.364;2023-03-29T16:37:26;15.50;61.70
66140;DHT22;52945;51.908;8.364;2023-03-29T16:40:27;15.50;61.40
66140;DHT22;52945;51.908;8.364;2023-03-29T16:43:28;15.50;61.90
66140;DHT22;52945;51.908;8.364;2023-03-29T16:46:29;15.50;62.20
66140;DHT22;52945;51.908;8.364;2023-03-29T16:49:30;15.50;61.90
66140;DHT22;52945;51.908;8.364;2023-03-29T16:52:30;15.50;61.70
66140;DHT22;52945;51.908;8.364;2023-03-29T16:55:31;15.50;61.90
66140;DHT22;52945;51.908;8.364;2023-03-29T16:58:32;15.50;61.90
66140;DHT22;52945;51.908;8.364;2023-03-29T17:01:32;15.50;62.00
66140;DHT22;52945;51.908;8.364;2023-03-29T17:04:33;15.40;61.80
66140;DHT22;52945;51.908;8.364;2023-03-29T17:07:34;15.50;61.80
66140;DHT22;52945;51.908;8.364;2023-03-29T17:10:34;15.40;61.60
66140;DHT22;52945;51.908;8.364;2023-03-29T17:13:35;15.40;61.50
66140;DHT22;52945;51.908;8.364;2023-03-29T17:16:36;15.50;61.60
66140;DHT22;52945;51.908;8.364;2023-03-29T17:19:37;15.40;61.60
66140;DHT22;52945;51.908;8.364;2023-03-29T17:22:38;15.40;61.80
66140;DHT22;52945;51.908;8.364;2023-03-29T17:25:39;15.40;61.80
66140;DHT22;52945;51.908;8.364;2023-03-29T17:28:39;15.40;62.00
66140;DHT22;52945;51.908;8.364;2023-03-29T17:31:40;15.40;62.40
66140;DHT22;52945;51.908;8.364;2023-03-29T17:34:46;15.30;62.60
66140;DHT22;52945;51.908;8.364;2023-03-29T17:37:47;15.30;62.80
66140;DHT22;52945;51.908;8.364;2023-03-29T17:40:52;15.30;62.90
66140;DHT22;52945;51.908;8.364;2023-03-29T17:43:53;15.30;62.90
66140;DHT22;52945;51.908;8.364;2023-03-29T17:46:54;15.20;62.70
66140;DHT22;52945;51.908;8.364;2023-03-29T17:49:54;15.20;62.80
66140;DHT22;52945;51.908;8.364;2023-03-29T17:52:55;15.20;62.60
66140;DHT22;52945;51.908;8.364;2023-03-29T17:55:56;15.20;62.60
66140;DHT22;52945;51.908;8.364;2023-03-29T17:58:57;15.20;62.80
66140;DHT22;52945;51.908;8.364;2023-03-29T18:01:57;15.10;62.80
66140;DHT22;52945;51.908;8.364;2023-03-29T18:04:59;15.10;63.50
66140;DHT22;52945;51.908;8.364;2023-03-29T18:08:03;15.10;64.30
66140;DHT22;52945;51.908;8.364;2023-03-29T18:11:10;15.10;64.30
66140;DHT22;52945;51.908;8.364;2023-03-29T18:14:11;15.00;64.20
66140;DHT22;52945;51.908;8.364;2023-03-29T18:17:11;14.90;64.00
66140;DHT22;52945;51.908;8.364;2023-03-29T18:20:12;15.00;64.10
66140;DHT22;52945;51.908;8.364;2023-03-29T18:23:13;15.00;64.20
66140;DHT22;52945;51.908;8.364;2023-03-29T18:26:14;14.90;64.40
66140;DHT22;52945;51.908;8.364;2023-03-29T18:29:15;14.90;64.50
66140;DHT22;52945;51.908;8.364;2023-03-29T18:32:16;14.90;64.70
66140;DHT22;52945;51.908;8.364;2023-03-29T18:35:16;14.80;64.90
66140;DHT22;52945;51.908;8.364;2023-03-29T18:38:19;14.80;65.00
66140;DHT22;52945;51.908;8.364;2023-03-29T18:41:21;14.80;64.90
66140;DHT22;52945;51.908;8.364;2023-03-29T18:44:23;14.80;65.00
66140;DHT22;52945;51.908;8.364;2023-03-29T18:47:27;14.80;65.00
66140;DHT22;52945;51.908;8.364;2023-03-29T18:50:28;14.70;65.10
66140;DHT22;52945;51.908;8.364;2023-03-29T18:53:28;14.80;65.30
66140;DHT22;52945;51.908;8.364;2023-03-29T18:56:29;14.80;65.20
66140;DHT22;52945;51.908;8.364;2023-03-29T18:59:30;14.80;65.40
66140;DHT22;52945;51.908;8.364;2023-03-29T19:02:30;14.80;65.50
66140;DHT22;52945;51.908;8.364;2023-03-29T19:05:31;14.70;65.20
66140;DHT22;52945;51.908;8.364;2023-03-29T19:08:32;14.70;65.40
66140;DHT22;52945;51.908;8.364;2023-03-29T19:11:33;14.70;65.30
66140;DHT22;52945;51.908;8.364;2023-03-29T19:14:35;14.80;65.30
66140;DHT22;52945;51.908;8.364;2023-03-29T19:17:35;14.80;65.20
66140;DHT22;52945;51.908;8.364;2023-03-29T19:20:36;14.70;65.30
66140;DHT22;52945;51.908;8.364;2023-03-29T19:23:37;14.70;65.40
66140;DHT22;52945;51.908;8.364;2023-03-29T19:26:39;14.80;65.20
66140;DHT22;52945;51.908;8.364;2023-03-29T19:29:39;14.80;65.70
66140;DHT22;52945;51.908;8.364;2023-03-29T19:32:40;14.70;65.40
66140;DHT22;52945;51.908;8.364;2023-03-29T19:35:41;14.70;65.50
66140;DHT22;52945;51.908;8.364;2023-03-29T19:38:41;14.70;65.20
66140;DHT22;52945;51.908;8.364;2023-03-29T19:41:42;14.70;65.30
66140;DHT22;52945;51.908;8.364;2023-03-29T19:44:43;14.70;65.40
66140;DHT22;52945;51.908;8.364;2023-03-29T19:47:43;14.70;65.40
66140;DHT22;52945;51.908;8.364;2023-03-29T19:50:46;14.70;65.40
66140;DHT22;52945;51.908;8.364;2023-03-29T19:53:47;14.70;65.40
66140;DHT22;52945;51.908;8.364;2023-03-29T19:56:48;14.70;65.40
66140;DHT22;52945;51.908;8.364;2023-03-29T19:59:49;14.70;65.50
66140;DHT22;52945;51.908;8.364;2023-03-29T20:02:51;14.70;65.30
66140;DHT22;52945;51.908;8.364;2023-03-29T20:05:51;14.70;65.40
66140;DHT22;52945;51.908;8.364;2023-03-29T20:08:52;14.70;65.30
66140;DHT22;52945;51.908;8.364;2023-03-29T20:11:53;14.70;65.50
66140;DHT22;52945;51.908;8.364;2023-03-29T20:14:53;14.70;65.30
66140;DHT22;52945;51.908;8.364;2023-03-29T20:17:54;14.70;65.40
66140;DHT22;52945;51.908;8.364;2023-03-29T20:20:55;14.70;65.50
66140;DHT22;52945;51.908;8.364;2023-03-29T20:23:56;14.70;65.20
66140;DHT22;52945;51.908;8.364;2023-03-29T20:26:57;14.70;65.50
66140;DHT22;52945;51.908;8.364;2023-03-29T20:29:57;14.70;65.50
66140;DHT22;52945;51.908;8.364;2023-03-29T20:32:58;14.70;65.80
66140;DHT22;52945;51.908;8.364;2023-03-29T20:35:59;14.70;65.90
66140;DHT22;52945;51.908;8.364;2023-03-29T20:38:59;14.70;65.80
66140;DHT22;52945;51.908;8.364;2023-03-29T20:42:00;14.70;65.50
66140;DHT22;52945;51.908;8.364;2023-03-29T20:45:03;14.70;65.60
66140;DHT22;52945;51.908;8.364;2023-03-29T20:48:03;14.70;65.70
66140;DHT22;52945;51.908;8.364;2023-03-29T20:51:04;14.70;65.90
66140;DHT22;52945;51.908;8.364;2023-03-29T20:54:09;14.70;65.50